Airfield :
LOGIN :

Register | Disclaimer

   EN    FR    IT 

 










Legend :    VFR   Marginal VFR   IFR   Intensive IFR   Very Intensive IFR
Visi :
Ceiling :
>= 8 km
>= 3000ft
5 to 8 km
1000 to 3000 ft
1500m to 5 km
500 to 1000 ft
800 to 1500m
200 to 500 ft
< 800m
< 200 ft
Symbols :   Thunderstorms  Fog  Heavy snow  Heavy precipitations  Wind > 20 kt
SIGMETs :     Misc.  Thunderstorms  Icing  Turbulence  Mountain Waves  Volcanic Ashes







- Airport Elevation : 489 ft
- IATA code : GDN


EPGD - Gdansk

CURRENT METAR :
  • 280000Z 24004KT CAVOK 14/14 Q1006

EXPIRED METARs :
  • 272330Z 23004KT 9999 FEW047 14/14 Q1006
  • 272300Z 25003KT 9999 SCT039 14/14 Q1006
  • 272230Z 20003KT 170V230 CAVOK 14/14 Q1006
  • 272200Z 21004KT CAVOK 15/14 Q1006
  • 272130Z VRB02KT CAVOK 15/14 Q1005

TAF TAF EPGD
Valid from the 28 at 00:00 until the 29 at 00:00 UTC


272330Z 2800/2824 22005KT CAVOK
PROB40 2800/2805 3000 BR BKN004
PROB30
TEMPO 2803/2806 TSRA BKN003 BKN012CB
TEMPO 2813/2822 SHRA BKN020CB
PROB40 2813/2818 4000 TSRA BKN005 BKN014CB
No reported NOTAMs for that airfield.



MET'MAP, your aeronautical weather chart ! - Copyright ORBIFLY December 2007 - Disclaimer

ORBIFLY MET'MAP TEAM :

Programming & Development : Alexandra Zaïnal
Concept & Development : Baudouin d'Aumeries
Co-Development & Prog : Marc-Olivier Méhu
Technical & hardware support : Manuel Goepfert

Contact : metmap@orbifly.com




SOURCES & CREDITS :

   NOAA